sensor_id;sensor_type;location;lat;lon;timestamp;P1;durP1;ratioP1;P2;durP2;ratioP2
60468;SDS011;46316;47.582;10.238;2022-09-02T00:00:51;6.85;;;6.18;;
60468;SDS011;46316;47.582;10.238;2022-09-02T00:03:19;7.32;;;6.63;;
60468;SDS011;46316;47.582;10.238;2022-09-02T00:05:45;6.85;;;6.25;;
60468;SDS011;46316;47.582;10.238;2022-09-02T00:08:10;9.40;;;6.28;;
60468;SDS011;46316;47.582;10.238;2022-09-02T00:10:38;7.18;;;6.45;;
60468;SDS011;46316;47.582;10.238;2022-09-02T00:13:08;7.63;;;6.82;;
60468;SDS011;46316;47.582;10.238;2022-09-02T00:15:36;6.70;;;6.03;;
60468;SDS011;46316;47.582;10.238;2022-09-02T00:18:02;7.15;;;6.45;;
60468;SDS011;46316;47.582;10.238;2022-09-02T00:20:29;7.32;;;6.63;;
60468;SDS011;46316;47.582;10.238;2022-09-02T00:22:54;7.03;;;6.43;;
60468;SDS011;46316;47.582;10.238;2022-09-02T00:25:21;8.00;;;6.95;;
60468;SDS011;46316;47.582;10.238;2022-09-02T00:27:47;9.23;;;7.38;;
60468;SDS011;46316;47.582;10.238;2022-09-02T00:30:13;7.65;;;6.75;;
60468;SDS011;46316;47.582;10.238;2022-09-02T00:32:39;7.25;;;6.65;;
60468;SDS011;46316;47.582;10.238;2022-09-02T00:35:05;7.30;;;6.60;;
60468;SDS011;46316;47.582;10.238;2022-09-02T00:37:31;8.07;;;6.50;;
60468;SDS011;46316;47.582;10.238;2022-09-02T00:39:56;7.13;;;6.53;;
60468;SDS011;46316;47.582;10.238;2022-09-02T00:42:22;7.32;;;6.50;;
60468;SDS011;46316;47.582;10.238;2022-09-02T00:44:49;7.25;;;6.55;;
60468;SDS011;46316;47.582;10.238;2022-09-02T00:47:15;8.13;;;6.53;;
60468;SDS011;46316;47.582;10.238;2022-09-02T00:49:43;7.38;;;6.78;;
60468;SDS011;46316;47.582;10.238;2022-09-02T00:54:55;7.82;;;7.13;;
60468;SDS011;46316;47.582;10.238;2022-09-02T00:57:26;7.00;;;6.40;;
60468;SDS011;46316;47.582;10.238;2022-09-02T00:59:58;7.45;;;6.78;;
60468;SDS011;46316;47.582;10.238;2022-09-02T01:02:25;7.68;;;6.88;;
60468;SDS011;46316;47.582;10.238;2022-09-02T01:04:55;7.85;;;7.03;;
60468;SDS011;46316;47.582;10.238;2022-09-02T01:07:23;6.53;;;6.00;;
60468;SDS011;46316;47.582;10.238;2022-09-02T01:09:52;7.68;;;6.97;;
60468;SDS011;46316;47.582;10.238;2022-09-02T01:12:19;7.40;;;6.45;;
60468;SDS011;46316;47.582;10.238;2022-09-02T01:14:46;7.10;;;6.40;;
60468;SDS011;46316;47.582;10.238;2022-09-02T01:17:11;7.68;;;6.97;;
60468;SDS011;46316;47.582;10.238;2022-09-02T01:19:39;6.65;;;6.05;;
60468;SDS011;46316;47.582;10.238;2022-09-02T01:22:16;9.15;;;6.68;;
60468;SDS011;46316;47.582;10.238;2022-09-02T01:24:48;7.88;;;7.18;;
60468;SDS011;46316;47.582;10.238;2022-09-02T01:27:15;8.15;;;7.35;;
60468;SDS011;46316;47.582;10.238;2022-09-02T01:29:44;7.13;;;6.50;;
60468;SDS011;46316;47.582;10.238;2022-09-02T01:34:40;7.38;;;6.78;;
60468;SDS011;46316;47.582;10.238;2022-09-02T01:37:05;7.38;;;6.68;;
60468;SDS011;46316;47.582;10.238;2022-09-02T01:39:31;8.05;;;7.35;;
60468;SDS011;46316;47.582;10.238;2022-09-02T01:41:57;7.45;;;6.72;;
60468;SDS011;46316;47.582;10.238;2022-09-02T01:44:24;7.72;;;6.85;;
60468;SDS011;46316;47.582;10.238;2022-09-02T01:46:51;6.72;;;6.10;;
60468;SDS011;46316;47.582;10.238;2022-09-02T01:49:17;6.47;;;5.60;;
60468;SDS011;46316;47.582;10.238;2022-09-02T01:51:43;7.75;;;5.50;;
60468;SDS011;46316;47.582;10.238;2022-09-02T01:54:08;8.00;;;6.20;;
60468;SDS011;46316;47.582;10.238;2022-09-02T01:56:34;6.32;;;5.78;;
60468;SDS011;46316;47.582;10.238;2022-09-02T01:58:59;6.35;;;5.75;;
60468;SDS011;46316;47.582;10.238;2022-09-02T02:01:26;6.80;;;6.20;;
60468;SDS011;46316;47.582;10.238;2022-09-02T02:03:52;6.40;;;5.80;;
60468;SDS011;46316;47.582;10.238;2022-09-02T02:06:17;7.05;;;5.63;;
60468;SDS011;46316;47.582;10.238;2022-09-02T02:08:43;6.55;;;5.95;;
60468;SDS011;46316;47.582;10.238;2022-09-02T02:11:09;7.30;;;5.85;;
60468;SDS011;46316;47.582;10.238;2022-09-02T02:13:35;6.63;;;6.03;;
60468;SDS011;46316;47.582;10.238;2022-09-02T02:16:00;5.93;;;5.43;;
60468;SDS011;46316;47.582;10.238;2022-09-02T02:18:26;6.18;;;5.65;;
60468;SDS011;46316;47.582;10.238;2022-09-02T02:20:53;6.32;;;5.72;;
60468;SDS011;46316;47.582;10.238;2022-09-02T02:23:19;6.38;;;5.75;;
60468;SDS011;46316;47.582;10.238;2022-09-02T02:25:45;6.40;;;5.80;;
60468;SDS011;46316;47.582;10.238;2022-09-02T02:28:10;7.07;;;6.18;;
60468;SDS011;46316;47.582;10.238;2022-09-02T02:30:36;6.30;;;5.80;;
60468;SDS011;46316;47.582;10.238;2022-09-02T02:33:02;5.72;;;5.22;;
60468;SDS011;46316;47.582;10.238;2022-09-02T02:35:27;6.57;;;5.97;;
60468;SDS011;46316;47.582;10.238;2022-09-02T02:37:53;6.20;;;5.60;;
60468;SDS011;46316;47.582;10.238;2022-09-02T02:40:20;6.82;;;6.15;;
60468;SDS011;46316;47.582;10.238;2022-09-02T02:42:48;6.80;;;6.07;;
60468;SDS011;46316;47.582;10.238;2022-09-02T02:45:17;5.90;;;5.40;;
60468;SDS011;46316;47.582;10.238;2022-09-02T02:47:43;6.53;;;5.93;;
60468;SDS011;46316;47.582;10.238;2022-09-02T02:50:11;6.50;;;5.90;;
60468;SDS011;46316;47.582;10.238;2022-09-02T02:52:39;6.53;;;5.93;;
60468;SDS011;46316;47.582;10.238;2022-09-02T02:55:06;6.35;;;5.75;;
60468;SDS011;46316;47.582;10.238;2022-09-02T02:57:33;6.88;;;6.28;;
60468;SDS011;46316;47.582;10.238;2022-09-02T03:00:14;6.80;;;6.10;;
60468;SDS011;46316;47.582;10.238;2022-09-02T03:02:42;6.32;;;5.68;;
60468;SDS011;46316;47.582;10.238;2022-09-02T03:05:08;7.05;;;5.97;;
60468;SDS011;46316;47.582;10.238;2022-09-02T03:07:35;6.80;;;6.10;;
60468;SDS011;46316;47.582;10.238;2022-09-02T03:10:01;5.82;;;5.25;;
60468;SDS011;46316;47.582;10.238;2022-09-02T03:12:27;6.72;;;6.03;;
60468;SDS011;46316;47.582;10.238;2022-09-02T03:14:54;6.40;;;5.80;;
60468;SDS011;46316;47.582;10.238;2022-09-02T03:17:19;6.03;;;5.50;;
60468;SDS011;46316;47.582;10.238;2022-09-02T03:19:46;6.18;;;5.53;;
60468;SDS011;46316;47.582;10.238;2022-09-02T03:22:11;6.50;;;5.90;;
60468;SDS011;46316;47.582;10.238;2022-09-02T03:27:03;6.72;;;5.78;;
60468;SDS011;46316;47.582;10.238;2022-09-02T03:29:29;5.47;;;4.97;;
60468;SDS011;46316;47.582;10.238;2022-09-02T03:31:54;6.53;;;5.68;;
60468;SDS011;46316;47.582;10.238;2022-09-02T03:34:21;7.38;;;6.07;;
60468;SDS011;46316;47.582;10.238;2022-09-02T03:36:46;6.75;;;6.18;;
60468;SDS011;46316;47.582;10.238;2022-09-02T03:39:12;6.53;;;5.80;;
60468;SDS011;46316;47.582;10.238;2022-09-02T03:41:39;6.82;;;6.10;;
60468;SDS011;46316;47.582;10.238;2022-09-02T03:44:05;6.15;;;5.63;;
60468;SDS011;46316;47.582;10.238;2022-09-02T03:46:31;6.80;;;6.20;;
60468;SDS011;46316;47.582;10.238;2022-09-02T03:48:57;7.28;;;6.60;;
60468;SDS011;46316;47.582;10.238;2022-09-02T03:51:23;7.05;;;6.35;;
60468;SDS011;46316;47.582;10.238;2022-09-02T03:53:50;7.22;;;6.53;;
60468;SDS011;46316;47.582;10.238;2022-09-02T03:56:16;6.22;;;5.70;;
60468;SDS011;46316;47.582;10.238;2022-09-02T03:58:43;6.60;;;6.07;;
60468;SDS011;46316;47.582;10.238;2022-09-02T04:01:13;6.75;;;5.00;;
60468;SDS011;46316;47.582;10.238;2022-09-02T04:03:42;5.40;;;4.90;;
60468;SDS011;46316;47.582;10.238;2022-09-02T04:06:12;5.03;;;4.63;;
60468;SDS011;46316;47.582;10.238;2022-09-02T04:08:39;8.52;;;5.93;;
60468;SDS011;46316;47.582;10.238;2022-09-02T04:11:09;8.60;;;6.35;;
60468;SDS011;46316;47.582;10.238;2022-09-02T04:13:38;6.32;;;5.82;;
60468;SDS011;46316;47.582;10.238;2022-09-02T04:16:08;6.60;;;6.00;;
60468;SDS011;46316;47.582;10.238;2022-09-02T04:18:36;8.23;;;6.80;;
60468;SDS011;46316;47.582;10.238;2022-09-02T04:21:02;10.45;;;7.03;;
60468;SDS011;46316;47.582;10.238;2022-09-02T04:23:28;11.32;;;8.00;;
60468;SDS011;46316;47.582;10.238;2022-09-02T04:25:55;10.80;;;8.77;;
60468;SDS011;46316;47.582;10.238;2022-09-02T04:28:21;9.32;;;8.13;;
60468;SDS011;46316;47.582;10.238;2022-09-02T04:30:47;10.00;;;8.20;;
60468;SDS011;46316;47.582;10.238;2022-09-02T04:33:12;13.00;;;8.82;;
60468;SDS011;46316;47.582;10.238;2022-09-02T04:35:39;8.35;;;7.55;;
60468;SDS011;46316;47.582;10.238;2022-09-02T04:38:06;10.40;;;7.47;;
60468;SDS011;46316;47.582;10.238;2022-09-02T04:40:32;8.23;;;6.63;;
60468;SDS011;46316;47.582;10.238;2022-09-02T04:42:57;8.50;;;7.70;;
60468;SDS011;46316;47.582;10.238;2022-09-02T04:45:24;8.50;;;7.57;;
60468;SDS011;46316;47.582;10.238;2022-09-02T04:47:49;7.72;;;7.00;;
60468;SDS011;46316;47.582;10.238;2022-09-02T04:50:15;8.82;;;7.93;;
60468;SDS011;46316;47.582;10.238;2022-09-02T04:52:40;9.55;;;7.82;;
60468;SDS011;46316;47.582;10.238;2022-09-02T04:55:06;8.20;;;7.10;;
60468;SDS011;46316;47.582;10.238;2022-09-02T04:57:33;8.10;;;7.10;;
60468;SDS011;46316;47.582;10.238;2022-09-02T04:59:58;8.13;;;7.32;;
60468;SDS011;46316;47.582;10.238;2022-09-02T05:02:25;7.82;;;7.13;;
60468;SDS011;46316;47.582;10.238;2022-09-02T05:04:51;7.75;;;6.95;;
60468;SDS011;46316;47.582;10.238;2022-09-02T05:07:16;8.45;;;7.18;;
60468;SDS011;46316;47.582;10.238;2022-09-02T05:09:42;6.97;;;6.38;;
60468;SDS011;46316;47.582;10.238;2022-09-02T05:12:08;8.02;;;7.32;;
60468;SDS011;46316;47.582;10.238;2022-09-02T05:14:35;7.05;;;6.35;;
60468;SDS011;46316;47.582;10.238;2022-09-02T05:17:00;17.38;;;7.07;;
60468;SDS011;46316;47.582;10.238;2022-09-02T05:19:26;7.10;;;5.95;;
60468;SDS011;46316;47.582;10.238;2022-09-02T05:21:52;8.85;;;5.90;;
60468;SDS011;46316;47.582;10.238;2022-09-02T05:24:20;10.70;;;5.50;;
60468;SDS011;46316;47.582;10.238;2022-09-02T05:26:45;5.70;;;5.20;;
60468;SDS011;46316;47.582;10.238;2022-09-02T05:29:12;6.05;;;5.28;;
60468;SDS011;46316;47.582;10.238;2022-09-02T05:31:38;12.95;;;5.80;;
60468;SDS011;46316;47.582;10.238;2022-09-02T05:34:06;5.93;;;5.28;;
60468;SDS011;46316;47.582;10.238;2022-09-02T05:36:32;21.17;;;5.38;;
60468;SDS011;46316;47.582;10.238;2022-09-02T05:38:58;5.72;;;5.20;;
60468;SDS011;46316;47.582;10.238;2022-09-02T05:41:24;8.93;;;4.65;;
60468;SDS011;46316;47.582;10.238;2022-09-02T05:43:52;8.98;;;4.65;;
60468;SDS011;46316;47.582;10.238;2022-09-02T05:46:20;10.80;;;4.40;;
60468;SDS011;46316;47.582;10.238;2022-09-02T05:48:47;4.70;;;4.30;;
60468;SDS011;46316;47.582;10.238;2022-09-02T05:51:37;4.80;;;4.40;;
60468;SDS011;46316;47.582;10.238;2022-09-02T05:54:04;7.18;;;3.90;;
60468;SDS011;46316;47.582;10.238;2022-09-02T05:56:30;4.35;;;3.33;;
60468;SDS011;46316;47.582;10.238;2022-09-02T05:58:56;4.35;;;3.47;;
60468;SDS011;46316;47.582;10.238;2022-09-02T06:01:22;4.00;;;3.60;;
60468;SDS011;46316;47.582;10.238;2022-09-02T06:03:49;3.15;;;2.85;;
60468;SDS011;46316;47.582;10.238;2022-09-02T06:06:16;3.00;;;2.80;;
60468;SDS011;46316;47.582;10.238;2022-09-02T06:08:43;4.93;;;3.35;;
60468;SDS011;46316;47.582;10.238;2022-09-02T06:11:09;3.72;;;2.85;;
60468;SDS011;46316;47.582;10.238;2022-09-02T06:13:37;4.03;;;2.53;;
60468;SDS011;46316;47.582;10.238;2022-09-02T06:16:04;3.63;;;2.50;;
60468;SDS011;46316;47.582;10.238;2022-09-02T06:21:02;4.75;;;2.88;;
60468;SDS011;46316;47.582;10.238;2022-09-02T06:23:28;4.97;;;2.65;;
60468;SDS011;46316;47.582;10.238;2022-09-02T06:25:54;3.05;;;2.78;;
60468;SDS011;46316;47.582;10.238;2022-09-02T06:28:20;2.60;;;2.40;;
60468;SDS011;46316;47.582;10.238;2022-09-02T06:30:46;2.50;;;2.30;;
60468;SDS011;46316;47.582;10.238;2022-09-02T06:33:15;2.92;;;2.22;;
60468;SDS011;46316;47.582;10.238;2022-09-02T06:35:41;3.30;;;2.50;;
60468;SDS011;46316;47.582;10.238;2022-09-02T06:38:09;3.20;;;2.33;;
60468;SDS011;46316;47.582;10.238;2022-09-02T06:40:36;4.60;;;2.35;;
60468;SDS011;46316;47.582;10.238;2022-09-02T06:43:09;2.47;;;2.28;;
60468;SDS011;46316;47.582;10.238;2022-09-02T06:45:38;2.47;;;2.20;;
60468;SDS011;46316;47.582;10.238;2022-09-02T06:48:04;2.22;;;2.03;;
60468;SDS011;46316;47.582;10.238;2022-09-02T06:50:31;2.22;;;2.03;;
60468;SDS011;46316;47.582;10.238;2022-09-02T06:52:57;2.33;;;2.13;;
60468;SDS011;46316;47.582;10.238;2022-09-02T06:55:43;2.65;;;2.10;;
60468;SDS011;46316;47.582;10.238;2022-09-02T06:58:38;2.08;;;1.98;;
60468;SDS011;46316;47.582;10.238;2022-09-02T07:02:11;3.55;;;2.30;;
60468;SDS011;46316;47.582;10.238;2022-09-02T07:04:24;3.22;;;1.83;;
60468;SDS011;46316;47.582;10.238;2022-09-02T07:07:12;1.60;;;1.50;;
60468;SDS011;46316;47.582;10.238;2022-09-02T07:09:56;2.78;;;1.70;;
60468;SDS011;46316;47.582;10.238;2022-09-02T07:15:35;2.22;;;1.75;;
60468;SDS011;46316;47.582;10.238;2022-09-02T07:18:01;2.65;;;1.80;;
60468;SDS011;46316;47.582;10.238;2022-09-02T07:20:31;2.33;;;1.80;;
60468;SDS011;46316;47.582;10.238;2022-09-02T07:37:07;1.70;;;1.60;;
60468;SDS011;46316;47.582;10.238;2022-09-02T07:40:00;1.65;;;1.55;;
60468;SDS011;46316;47.582;10.238;2022-09-02T07:43:28;1.85;;;1.65;;
60468;SDS011;46316;47.582;10.238;2022-09-02T08:11:10;2.58;;;2.00;;
60468;SDS011;46316;47.582;10.238;2022-09-02T08:14:40;2.40;;;1.70;;
60468;SDS011;46316;47.582;10.238;2022-09-02T08:21:06;1.75;;;1.63;;
60468;SDS011;46316;47.582;10.238;2022-09-02T08:23:40;1.77;;;1.50;;
60468;SDS011;46316;47.582;10.238;2022-09-02T08:30:02;2.45;;;1.70;;
60468;SDS011;46316;47.582;10.238;2022-09-02T08:33:36;2.72;;;1.60;;
60468;SDS011;46316;47.582;10.238;2022-09-02T08:43:40;1.50;;;1.40;;
60468;SDS011;46316;47.582;10.238;2022-09-02T08:53:15;1.88;;;1.77;;
60468;SDS011;46316;47.582;10.238;2022-09-02T08:59:20;2.00;;;1.90;;
60468;SDS011;46316;47.582;10.238;2022-09-02T09:05:55;1.95;;;1.85;;
60468;SDS011;46316;47.582;10.238;2022-09-02T09:15:31;2.13;;;2.00;;
60468;SDS011;46316;47.582;10.238;2022-09-02T09:21:41;4.43;;;2.13;;
60468;SDS011;46316;47.582;10.238;2022-09-02T09:26:52;2.15;;;1.95;;
60468;SDS011;46316;47.582;10.238;2022-09-02T09:29:21;4.75;;;2.10;;
60468;SDS011;46316;47.582;10.238;2022-09-02T09:31:56;2.28;;;2.17;;
60468;SDS011;46316;47.582;10.238;2022-09-02T09:34:22;2.05;;;1.90;;
60468;SDS011;46316;47.582;10.238;2022-09-02T09:36:49;4.18;;;2.22;;
60468;SDS011;46316;47.582;10.238;2022-09-02T09:41:43;2.88;;;1.92;;
60468;SDS011;46316;47.582;10.238;2022-09-02T09:44:09;2.75;;;2.55;;
60468;SDS011;46316;47.582;10.238;2022-09-02T09:46:35;2.57;;;2.37;;
60468;SDS011;46316;47.582;10.238;2022-09-02T09:49:01;3.00;;;2.80;;
60468;SDS011;46316;47.582;10.238;2022-09-02T09:51:26;2.47;;;2.28;;
60468;SDS011;46316;47.582;10.238;2022-09-02T09:53:52;2.58;;;2.38;;
60468;SDS011;46316;47.582;10.238;2022-09-02T09:56:40;2.10;;;2.00;;
60468;SDS011;46316;47.582;10.238;2022-09-02T09:59:06;3.08;;;2.10;;
60468;SDS011;46316;47.582;10.238;2022-09-02T10:01:52;2.75;;;2.55;;
60468;SDS011;46316;47.582;10.238;2022-09-02T10:04:30;2.88;;;2.67;;
60468;SDS011;46316;47.582;10.238;2022-09-02T10:06:57;2.70;;;2.50;;
60468;SDS011;46316;47.582;10.238;2022-09-02T10:11:58;3.80;;;2.30;;
60468;SDS011;46316;47.582;10.238;2022-09-02T10:14:44;2.70;;;2.50;;
60468;SDS011;46316;47.582;10.238;2022-09-02T10:22:57;2.38;;;2.17;;
60468;SDS011;46316;47.582;10.238;2022-09-02T10:31:09;2.60;;;2.40;;
60468;SDS011;46316;47.582;10.238;2022-09-02T10:33:41;3.00;;;2.28;;
60468;SDS011;46316;47.582;10.238;2022-09-02T10:36:45;3.08;;;2.40;;
60468;SDS011;46316;47.582;10.238;2022-09-02T10:42:45;2.78;;;2.55;;
60468;SDS011;46316;47.582;10.238;2022-09-02T10:48:24;2.35;;;2.22;;
60468;SDS011;46316;47.582;10.238;2022-09-02T10:56:31;2.60;;;2.40;;
60468;SDS011;46316;47.582;10.238;2022-09-02T11:02:01;2.63;;;2.42;;
60468;SDS011;46316;47.582;10.238;2022-09-02T11:07:41;3.08;;;2.78;;
60468;SDS011;46316;47.582;10.238;2022-09-02T11:10:24;2.88;;;2.67;;
60468;SDS011;46316;47.582;10.238;2022-09-02T11:13:00;4.00;;;3.10;;
60468;SDS011;46316;47.582;10.238;2022-09-02T11:18:16;3.70;;;3.40;;
60468;SDS011;46316;47.582;10.238;2022-09-02T11:20:47;4.53;;;3.35;;
60468;SDS011;46316;47.582;10.238;2022-09-02T11:23:43;3.60;;;3.17;;
60468;SDS011;46316;47.582;10.238;2022-09-02T11:26:28;3.17;;;2.97;;
60468;SDS011;46316;47.582;10.238;2022-09-02T11:31:57;3.08;;;2.88;;
60468;SDS011;46316;47.582;10.238;2022-09-02T11:37:01;3.83;;;3.53;;
60468;SDS011;46316;47.582;10.238;2022-09-02T11:39:45;4.18;;;3.30;;
60468;SDS011;46316;47.582;10.238;2022-09-02T11:56:00;3.25;;;2.97;;
60468;SDS011;46316;47.582;10.238;2022-09-02T11:58:39;3.85;;;3.45;;
60468;SDS011;46316;47.582;10.238;2022-09-02T12:03:53;3.33;;;3.03;;
60468;SDS011;46316;47.582;10.238;2022-09-02T12:06:21;3.77;;;3.43;;
60468;SDS011;46316;47.582;10.238;2022-09-02T12:17:05;5.28;;;3.13;;
60468;SDS011;46316;47.582;10.238;2022-09-02T12:19:39;3.63;;;3.33;;
60468;SDS011;46316;47.582;10.238;2022-09-02T12:24:49;7.00;;;3.80;;
60468;SDS011;46316;47.582;10.238;2022-09-02T12:29:58;4.13;;;3.40;;
60468;SDS011;46316;47.582;10.238;2022-09-02T12:35:28;3.88;;;3.58;;
60468;SDS011;46316;47.582;10.238;2022-09-02T12:38:41;3.30;;;3.10;;
60468;SDS011;46316;47.582;10.238;2022-09-02T12:49:00;3.58;;;3.22;;
60468;SDS011;46316;47.582;10.238;2022-09-02T12:51:49;4.30;;;3.47;;
60468;SDS011;46316;47.582;10.238;2022-09-02T12:57:03;4.70;;;3.20;;
60468;SDS011;46316;47.582;10.238;2022-09-02T12:59:34;3.92;;;3.63;;
60468;SDS011;46316;47.582;10.238;2022-09-02T13:02:05;3.58;;;3.28;;
60468;SDS011;46316;47.582;10.238;2022-09-02T13:05:09;4.95;;;3.15;;
60468;SDS011;46316;47.582;10.238;2022-09-02T13:11:04;3.95;;;3.38;;
60468;SDS011;46316;47.582;10.238;2022-09-02T13:17:06;3.50;;;3.20;;
60468;SDS011;46316;47.582;10.238;2022-09-02T13:20:08;4.40;;;3.40;;
60468;SDS011;46316;47.582;10.238;2022-09-02T13:30:36;3.53;;;3.22;;
60468;SDS011;46316;47.582;10.238;2022-09-02T13:33:29;3.35;;;3.05;;
60468;SDS011;46316;47.582;10.238;2022-09-02T13:35:55;5.25;;;3.65;;
60468;SDS011;46316;47.582;10.238;2022-09-02T13:38:24;3.80;;;3.50;;
60468;SDS011;46316;47.582;10.238;2022-09-02T13:40:51;3.70;;;3.40;;
60468;SDS011;46316;47.582;10.238;2022-09-02T13:43:18;4.82;;;3.90;;
60468;SDS011;46316;47.582;10.238;2022-09-02T13:45:45;3.50;;;3.20;;
60468;SDS011;46316;47.582;10.238;2022-09-02T13:48:17;3.75;;;3.45;;
60468;SDS011;46316;47.582;10.238;2022-09-02T13:50:55;3.45;;;3.15;;
60468;SDS011;46316;47.582;10.238;2022-09-02T13:53:24;3.80;;;3.50;;
60468;SDS011;46316;47.582;10.238;2022-09-02T13:55:54;5.05;;;3.45;;
60468;SDS011;46316;47.582;10.238;2022-09-02T14:00:53;5.07;;;3.38;;
60468;SDS011;46316;47.582;10.238;2022-09-02T14:03:20;4.03;;;3.35;;
60468;SDS011;46316;47.582;10.238;2022-09-02T14:05:48;4.20;;;3.67;;
60468;SDS011;46316;47.582;10.238;2022-09-02T14:08:17;4.32;;;3.50;;
60468;SDS011;46316;47.582;10.238;2022-09-02T14:10:46;3.90;;;3.05;;
60468;SDS011;46316;47.582;10.238;2022-09-02T14:13:13;3.78;;;3.47;;
60468;SDS011;46316;47.582;10.238;2022-09-02T14:15:40;4.88;;;3.20;;
60468;SDS011;46316;47.582;10.238;2022-09-02T14:18:10;4.00;;;3.70;;
60468;SDS011;46316;47.582;10.238;2022-09-02T14:20:39;3.88;;;3.47;;
60468;SDS011;46316;47.582;10.238;2022-09-02T14:23:25;3.30;;;3.00;;
60468;SDS011;46316;47.582;10.238;2022-09-02T14:25:56;4.43;;;3.42;;
60468;SDS011;46316;47.582;10.238;2022-09-02T14:28:24;3.60;;;3.20;;
60468;SDS011;46316;47.582;10.238;2022-09-02T14:30:59;3.03;;;2.83;;
60468;SDS011;46316;47.582;10.238;2022-09-02T14:33:35;4.80;;;3.42;;
60468;SDS011;46316;47.582;10.238;2022-09-02T14:46:21;3.88;;;3.30;;
60468;SDS011;46316;47.582;10.238;2022-09-02T14:51:22;3.38;;;2.70;;
60468;SDS011;46316;47.582;10.238;2022-09-02T14:54:09;3.30;;;3.00;;
60468;SDS011;46316;47.582;10.238;2022-09-02T14:56:41;4.32;;;2.95;;
60468;SDS011;46316;47.582;10.238;2022-09-02T14:59:12;3.10;;;2.90;;
60468;SDS011;46316;47.582;10.238;2022-09-02T15:01:41;3.72;;;3.03;;
60468;SDS011;46316;47.582;10.238;2022-09-02T15:04:12;3.10;;;2.80;;
60468;SDS011;46316;47.582;10.238;2022-09-02T15:06:39;3.28;;;2.95;;
60468;SDS011;46316;47.582;10.238;2022-09-02T15:09:05;3.33;;;3.00;;
60468;SDS011;46316;47.582;10.238;2022-09-02T15:11:31;3.10;;;2.90;;
60468;SDS011;46316;47.582;10.238;2022-09-02T15:13:56;3.38;;;3.17;;
60468;SDS011;46316;47.582;10.238;2022-09-02T15:16:23;4.65;;;3.30;;
60468;SDS011;46316;47.582;10.238;2022-09-02T15:18:48;3.35;;;3.00;;
60468;SDS011;46316;47.582;10.238;2022-09-02T15:21:14;3.50;;;3.20;;
60468;SDS011;46316;47.582;10.238;2022-09-02T15:23:40;3.70;;;3.05;;
60468;SDS011;46316;47.582;10.238;2022-09-02T15:26:06;3.97;;;3.45;;
60468;SDS011;46316;47.582;10.238;2022-09-02T15:28:32;3.47;;;3.10;;
60468;SDS011;46316;47.582;10.238;2022-09-02T15:30:59;3.53;;;3.22;;
60468;SDS011;46316;47.582;10.238;2022-09-02T15:33:25;3.60;;;3.30;;
60468;SDS011;46316;47.582;10.238;2022-09-02T15:35:51;3.60;;;3.30;;
60468;SDS011;46316;47.582;10.238;2022-09-02T15:38:17;4.25;;;2.88;;
60468;SDS011;46316;47.582;10.238;2022-09-02T15:40:43;3.58;;;3.28;;
60468;SDS011;46316;47.582;10.238;2022-09-02T15:43:09;4.15;;;3.38;;
60468;SDS011;46316;47.582;10.238;2022-09-02T15:45:44;3.25;;;3.05;;
60468;SDS011;46316;47.582;10.238;2022-09-02T15:48:13;3.22;;;3.03;;
60468;SDS011;46316;47.582;10.238;2022-09-02T15:50:39;3.70;;;3.40;;
60468;SDS011;46316;47.582;10.238;2022-09-02T15:53:04;4.30;;;3.03;;
60468;SDS011;46316;47.582;10.238;2022-09-02T15:55:30;3.95;;;3.25;;
60468;SDS011;46316;47.582;10.238;2022-09-02T15:57:57;3.38;;;3.08;;
60468;SDS011;46316;47.582;10.238;2022-09-02T16:00:23;4.72;;;3.50;;
60468;SDS011;46316;47.582;10.238;2022-09-02T16:02:50;3.55;;;3.25;;
60468;SDS011;46316;47.582;10.238;2022-09-02T16:05:20;4.13;;;3.45;;
60468;SDS011;46316;47.582;10.238;2022-09-02T16:07:46;4.72;;;3.17;;
60468;SDS011;46316;47.582;10.238;2022-09-02T16:10:12;4.15;;;3.25;;
60468;SDS011;46316;47.582;10.238;2022-09-02T16:12:39;4.40;;;3.30;;
60468;SDS011;46316;47.582;10.238;2022-09-02T16:15:12;3.40;;;3.10;;
60468;SDS011;46316;47.582;10.238;2022-09-02T16:17:38;4.20;;;3.35;;
60468;SDS011;46316;47.582;10.238;2022-09-02T16:20:06;3.72;;;3.42;;
60468;SDS011;46316;47.582;10.238;2022-09-02T16:22:32;5.10;;;3.30;;
60468;SDS011;46316;47.582;10.238;2022-09-02T16:24:57;3.28;;;2.95;;
60468;SDS011;46316;47.582;10.238;2022-09-02T16:27:30;3.35;;;3.08;;
60468;SDS011;46316;47.582;10.238;2022-09-02T16:30:22;3.47;;;3.17;;
60468;SDS011;46316;47.582;10.238;2022-09-02T16:32:48;3.50;;;3.17;;
60468;SDS011;46316;47.582;10.238;2022-09-02T16:35:16;3.78;;;3.00;;
60468;SDS011;46316;47.582;10.238;2022-09-02T16:37:42;3.22;;;2.97;;
60468;SDS011;46316;47.582;10.238;2022-09-02T16:40:07;3.38;;;3.17;;
60468;SDS011;46316;47.582;10.238;2022-09-02T16:42:33;4.05;;;3.40;;
60468;SDS011;46316;47.582;10.238;2022-09-02T16:44:59;3.50;;;3.20;;
60468;SDS011;46316;47.582;10.238;2022-09-02T16:47:24;3.35;;;3.05;;
60468;SDS011;46316;47.582;10.238;2022-09-02T16:49:50;3.97;;;3.58;;
60468;SDS011;46316;47.582;10.238;2022-09-02T16:52:16;4.82;;;3.33;;
60468;SDS011;46316;47.582;10.238;2022-09-02T16:54:42;3.53;;;3.22;;
60468;SDS011;46316;47.582;10.238;2022-09-02T16:57:07;3.90;;;3.60;;
60468;SDS011;46316;47.582;10.238;2022-09-02T16:59:33;3.90;;;3.60;;
60468;SDS011;46316;47.582;10.238;2022-09-02T17:01:59;4.25;;;3.65;;
60468;SDS011;46316;47.582;10.238;2022-09-02T17:04:24;4.07;;;3.72;;
60468;SDS011;46316;47.582;10.238;2022-09-02T17:06:50;3.83;;;3.53;;
60468;SDS011;46316;47.582;10.238;2022-09-02T17:09:15;5.43;;;4.55;;
60468;SDS011;46316;47.582;10.238;2022-09-02T17:11:41;4.03;;;3.63;;
60468;SDS011;46316;47.582;10.238;2022-09-02T17:14:12;4.45;;;3.53;;
60468;SDS011;46316;47.582;10.238;2022-09-02T17:16:40;4.47;;;3.55;;
60468;SDS011;46316;47.582;10.238;2022-09-02T17:19:08;3.92;;;3.53;;
60468;SDS011;46316;47.582;10.238;2022-09-02T17:21:41;4.90;;;3.70;;
60468;SDS011;46316;47.582;10.238;2022-09-02T17:24:08;4.45;;;3.58;;
60468;SDS011;46316;47.582;10.238;2022-09-02T17:26:36;5.15;;;3.88;;
60468;SDS011;46316;47.582;10.238;2022-09-02T17:29:22;4.75;;;4.20;;
60468;SDS011;46316;47.582;10.238;2022-09-02T17:31:50;4.68;;;4.28;;
60468;SDS011;46316;47.582;10.238;2022-09-02T17:34:16;3.65;;;3.35;;
60468;SDS011;46316;47.582;10.238;2022-09-02T17:36:41;4.20;;;3.90;;
60468;SDS011;46316;47.582;10.238;2022-09-02T17:39:08;4.10;;;3.70;;
60468;SDS011;46316;47.582;10.238;2022-09-02T17:41:38;4.60;;;3.60;;
60468;SDS011;46316;47.582;10.238;2022-09-02T17:44:31;4.13;;;3.72;;
60468;SDS011;46316;47.582;10.238;2022-09-02T17:46:59;6.13;;;4.05;;
60468;SDS011;46316;47.582;10.238;2022-09-02T17:49:37;4.60;;;3.88;;
60468;SDS011;46316;47.582;10.238;2022-09-02T17:52:06;4.97;;;3.63;;
60468;SDS011;46316;47.582;10.238;2022-09-02T17:54:33;4.35;;;3.95;;
60468;SDS011;46316;47.582;10.238;2022-09-02T18:00:10;3.95;;;3.65;;
60468;SDS011;46316;47.582;10.238;2022-09-02T18:02:45;5.43;;;4.60;;
60468;SDS011;46316;47.582;10.238;2022-09-02T18:10:55;6.78;;;4.90;;
60468;SDS011;46316;47.582;10.238;2022-09-02T18:16:09;4.93;;;4.53;;
60468;SDS011;46316;47.582;10.238;2022-09-02T18:18:44;4.72;;;4.18;;
60468;SDS011;46316;47.582;10.238;2022-09-02T18:21:18;6.22;;;4.50;;
60468;SDS011;46316;47.582;10.238;2022-09-02T18:26:51;5.28;;;4.88;;
60468;SDS011;46316;47.582;10.238;2022-09-02T18:29:32;4.78;;;4.32;;
60468;SDS011;46316;47.582;10.238;2022-09-02T18:43:12;4.97;;;4.57;;
60468;SDS011;46316;47.582;10.238;2022-09-02T18:45:48;4.75;;;4.35;;
60468;SDS011;46316;47.582;10.238;2022-09-02T18:48:27;5.07;;;4.57;;